createdAt,value
2022-09-25T00:00:45.565Z,22.48
2022-09-25T00:03:13.602Z,21.67
2022-09-25T00:05:41.714Z,22.60
2022-09-25T00:08:09.528Z,24.40
2022-09-25T00:10:41.805Z,25.48
2022-09-25T00:13:08.559Z,30.33
2022-09-25T00:15:35.210Z,35.65
2022-09-25T00:18:02.013Z,35.28
2022-09-25T00:20:28.736Z,42.28
2022-09-25T00:22:55.778Z,44.17
2022-09-25T00:25:22.518Z,41.00
2022-09-25T00:27:54.304Z,36.53
2022-09-25T00:30:21.117Z,35.55
2022-09-25T00:32:47.669Z,30.77
2022-09-25T00:35:14.301Z,29.85
2022-09-25T00:37:40.832Z,31.38
2022-09-25T00:40:08.193Z,34.58
2022-09-25T00:42:36.387Z,35.85
2022-09-25T00:45:24.813Z,34.35
2022-09-25T00:48:14.792Z,39.95
2022-09-25T00:50:55.512Z,35.83
2022-09-25T00:53:27.242Z,34.25
2022-09-25T00:55:56.442Z,33.28
2022-09-25T00:58:25.441Z,37.85
2022-09-25T01:00:53.803Z,32.13
2022-09-25T01:03:20.912Z,32.45
2022-09-25T01:05:49.224Z,25.98
2022-09-25T01:08:19.665Z,34.58
2022-09-25T01:10:46.616Z,31.77
2022-09-25T01:13:15.328Z,31.60
2022-09-25T01:15:52.784Z,33.58
2022-09-25T01:18:55.618Z,37.40
2022-09-25T01:24:15.155Z,25.58
2022-09-25T01:27:06.672Z,32.05
2022-09-25T01:30:01.929Z,30.13
2022-09-25T01:32:42.617Z,29.08
2022-09-25T01:35:37.615Z,30.60
2022-09-25T01:38:28.500Z,26.98
2022-09-25T01:40:58.439Z,26.45
2022-09-25T01:43:41.973Z,24.13
2022-09-25T01:46:22.553Z,32.60
2022-09-25T01:48:55.395Z,37.42
2022-09-25T01:51:27.631Z,39.28
2022-09-25T01:53:58.218Z,41.95
2022-09-25T01:56:32.958Z,39.33
2022-09-25T01:59:24.206Z,38.60
2022-09-25T02:01:52.903Z,38.08
2022-09-25T02:04:35.164Z,39.22
2022-09-25T02:09:37.528Z,37.40
2022-09-25T02:12:14.365Z,36.35
2022-09-25T02:15:02.172Z,62.83
2022-09-25T02:18:00.493Z,84.93
2022-09-25T02:20:33.926Z,52.47
2022-09-25T02:23:23.582Z,53.17
2022-09-25T02:26:02.042Z,111.50
2022-09-25T02:31:02.562Z,110.63
2022-09-25T02:33:29.829Z,94.93
2022-09-25T02:35:56.445Z,56.90
2022-09-25T02:38:23.073Z,62.88
2022-09-25T02:41:21.277Z,99.50
2022-09-25T02:44:24.689Z,60.63
2022-09-25T02:47:13.240Z,76.47
2022-09-25T02:50:05.618Z,79.43
2022-09-25T02:52:41.785Z,63.50
2022-09-25T02:55:51.787Z,64.30
2022-09-25T02:58:37.092Z,60.80
2022-09-25T03:01:50.722Z,44.75
2022-09-25T03:04:19.177Z,39.45
2022-09-25T03:06:46.261Z,41.92
2022-09-25T03:09:15.809Z,43.30
2022-09-25T03:11:43.590Z,40.15
2022-09-25T03:14:10.513Z,50.90
2022-09-25T03:16:51.579Z,57.03
2022-09-25T03:19:21.910Z,57.30
2022-09-25T03:21:49.005Z,45.40
2022-09-25T03:24:16.024Z,42.75
2022-09-25T03:26:43.106Z,46.45
2022-09-25T03:29:12.746Z,42.28
2022-09-25T03:31:39.856Z,37.22
2022-09-25T03:34:06.465Z,40.90
2022-09-25T03:36:34.864Z,41.10
2022-09-25T03:39:01.585Z,39.53
2022-09-25T03:41:31.175Z,43.10
2022-09-25T03:43:58.505Z,42.17
2022-09-25T03:46:30.498Z,40.67
2022-09-25T03:51:26.021Z,42.40
2022-09-25T03:53:53.631Z,38.28
2022-09-25T03:56:24.977Z,36.63
2022-09-25T03:58:54.280Z,38.30
2022-09-25T04:01:21.891Z,37.85
2022-09-25T04:03:49.403Z,38.33
2022-09-25T04:06:18.384Z,38.83
2022-09-25T04:08:46.132Z,33.80
2022-09-25T04:11:12.964Z,38.47
2022-09-25T04:16:08.357Z,38.40
2022-09-25T04:18:35.501Z,36.15
2022-09-25T04:21:06.659Z,35.92
2022-09-25T04:25:50.988Z,38.17
2022-09-25T04:28:17.757Z,39.45
2022-09-25T04:30:44.492Z,40.30
2022-09-25T04:33:30.051Z,44.47
2022-09-25T04:35:56.812Z,40.58
2022-09-25T04:38:23.641Z,41.33
2022-09-25T04:40:50.271Z,37.58
2022-09-25T04:43:16.840Z,41.90
2022-09-25T04:45:43.411Z,38.42
2022-09-25T04:48:09.977Z,40.20
2022-09-25T04:50:36.592Z,38.95
2022-09-25T04:53:03.120Z,39.40
2022-09-25T04:55:30.168Z,40.92
2022-09-25T04:57:59.541Z,42.35
2022-09-25T05:00:28.998Z,42.45
2022-09-25T05:02:55.795Z,39.42
2022-09-25T05:05:27.237Z,40.33
2022-09-25T05:07:54.564Z,42.30
2022-09-25T05:10:22.488Z,39.63
2022-09-25T05:12:54.202Z,42.20
2022-09-25T05:15:21.064Z,40.88
2022-09-25T05:17:47.724Z,41.90
2022-09-25T05:20:14.323Z,40.30
2022-09-25T05:22:40.844Z,40.05
2022-09-25T05:25:07.928Z,42.35
2022-09-25T05:27:34.671Z,44.92
2022-09-25T05:30:01.593Z,43.92
2022-09-25T05:32:28.185Z,41.05
2022-09-25T05:34:54.706Z,40.40
2022-09-25T05:37:21.185Z,39.38
2022-09-25T05:39:47.837Z,38.50
2022-09-25T05:42:15.961Z,40.20
2022-09-25T05:44:42.493Z,37.45
2022-09-25T05:47:09.014Z,37.72
2022-09-25T05:49:35.599Z,37.67
2022-09-25T05:52:02.341Z,37.13
2022-09-25T05:54:28.871Z,34.45
2022-09-25T05:56:55.377Z,35.20
2022-09-25T05:59:21.944Z,34.88
2022-09-25T06:01:48.552Z,36.38
2022-09-25T06:04:15.189Z,34.90
2022-09-25T06:06:41.680Z,35.28
2022-09-25T06:09:08.276Z,34.50
2022-09-25T06:11:35.097Z,33.47
2022-09-25T06:14:02.018Z,32.60
2022-09-25T06:16:28.677Z,30.05
2022-09-25T06:18:56.239Z,36.47
2022-09-25T06:23:36.937Z,33.83
2022-09-25T06:26:05.916Z,36.08
2022-09-25T06:28:33.128Z,36.08
2022-09-25T06:31:01.062Z,33.63
2022-09-25T06:33:27.827Z,34.38
2022-09-25T06:35:54.396Z,31.77
2022-09-25T06:38:21.110Z,32.25
2022-09-25T06:40:47.711Z,33.42
2022-09-25T06:43:15.998Z,32.97
2022-09-25T06:45:43.278Z,32.00
2022-09-25T06:48:15.665Z,33.25
2022-09-25T06:50:55.316Z,30.88
2022-09-25T06:53:23.970Z,31.23
2022-09-25T06:55:51.038Z,31.08
2022-09-25T06:58:20.708Z,28.83
2022-09-25T07:00:52.096Z,29.10
2022-09-25T07:03:37.686Z,31.25
2022-09-25T07:06:06.543Z,31.10
2022-09-25T07:08:33.336Z,32.70
2022-09-25T07:11:01.534Z,35.50
2022-09-25T07:13:31.481Z,39.20
2022-09-25T07:16:00.141Z,37.00
2022-09-25T07:18:28.537Z,35.75
2022-09-25T07:21:11.451Z,33.63
2022-09-25T07:23:39.515Z,31.77
2022-09-25T07:26:10.766Z,33.15
2022-09-25T07:28:39.164Z,32.70
2022-09-25T07:31:19.282Z,32.55
2022-09-25T07:33:46.893Z,33.10
2022-09-25T07:36:14.841Z,33.28
2022-09-25T07:38:42.033Z,31.52
2022-09-25T07:41:13.512Z,31.55
2022-09-25T07:43:42.181Z,30.02
2022-09-25T07:46:08.770Z,27.00
2022-09-25T07:48:35.700Z,27.00
2022-09-25T07:51:04.780Z,31.58
2022-09-25T07:53:31.851Z,33.22
2022-09-25T07:56:06.073Z,34.58
2022-09-25T07:58:35.418Z,31.80
2022-09-25T08:01:04.947Z,32.00
2022-09-25T08:03:31.623Z,32.42
2022-09-25T08:06:07.216Z,30.90
2022-09-25T08:08:34.474Z,30.13
2022-09-25T08:11:02.853Z,29.33
2022-09-25T08:13:32.384Z,28.98
2022-09-25T08:15:59.513Z,31.30
2022-09-25T08:18:26.136Z,30.90
2022-09-25T08:20:52.689Z,34.88
2022-09-25T08:23:20.088Z,35.50
2022-09-25T08:25:49.679Z,35.10
2022-09-25T08:28:16.390Z,37.95
2022-09-25T08:32:58.945Z,35.42
2022-09-25T08:35:27.998Z,32.28
2022-09-25T08:37:55.032Z,33.20
2022-09-25T08:40:30.990Z,31.88
2022-09-25T08:42:59.031Z,29.30
2022-09-25T08:45:58.859Z,29.38
2022-09-25T08:48:51.751Z,28.38
2022-09-25T08:51:18.746Z,29.35
2022-09-25T08:53:46.090Z,29.02
2022-09-25T08:56:20.021Z,28.80
2022-09-25T08:59:23.687Z,28.58
2022-09-25T09:01:56.026Z,26.50
2022-09-25T09:04:32.054Z,25.65
2022-09-25T09:07:28.118Z,22.33
2022-09-25T09:10:11.030Z,22.25
2022-09-25T09:12:44.841Z,21.40
2022-09-25T09:15:27.631Z,21.63
2022-09-25T09:17:57.989Z,21.33
2022-09-25T09:20:33.227Z,21.45
2022-09-25T09:23:00.886Z,23.10
2022-09-25T09:28:14.957Z,24.25
2022-09-25T09:31:01.093Z,23.55
2022-09-25T09:33:34.370Z,23.02
2022-09-25T09:36:26.382Z,22.85
2022-09-25T09:39:15.969Z,24.40
2022-09-25T09:41:50.164Z,23.42
2022-09-25T09:44:51.334Z,23.73
2022-09-25T09:47:45.454Z,25.23
2022-09-25T09:50:43.231Z,25.80
2022-09-25T09:53:24.097Z,26.33
2022-09-25T09:55:54.287Z,24.45
2022-09-25T09:58:33.658Z,25.52
2022-09-25T10:01:15.984Z,35.78
2022-09-25T10:03:49.862Z,33.58
2022-09-25T10:06:22.427Z,28.58
2022-09-25T10:08:49.467Z,31.63
2022-09-25T10:11:18.348Z,22.90
2022-09-25T10:13:46.169Z,31.45
2022-09-25T10:16:16.416Z,24.63
2022-09-25T10:19:07.262Z,21.50
2022-09-25T10:21:42.274Z,19.02
2022-09-25T10:24:08.956Z,20.95
2022-09-25T10:26:39.855Z,18.88
2022-09-25T10:29:21.665Z,21.50
2022-09-25T10:31:56.839Z,21.75
2022-09-25T10:34:24.275Z,18.42
2022-09-25T10:36:53.125Z,15.43
2022-09-25T10:39:46.675Z,15.35
2022-09-25T10:42:37.628Z,14.82
2022-09-25T10:45:29.833Z,16.90
2022-09-25T10:48:17.694Z,18.23
2022-09-25T10:50:44.508Z,19.52
2022-09-25T10:55:31.209Z,18.02
2022-09-25T10:58:06.737Z,19.63
2022-09-25T11:00:42.386Z,19.45
2022-09-25T11:03:21.580Z,21.20
2022-09-25T11:05:55.135Z,19.33
2022-09-25T11:08:28.956Z,16.90
2022-09-25T11:11:00.680Z,16.42
2022-09-25T11:13:36.923Z,13.90
2022-09-25T11:16:10.290Z,16.10
2022-09-25T11:18:48.748Z,19.05
2022-09-25T11:21:23.489Z,17.73
2022-09-25T11:24:04.209Z,17.50
2022-09-25T11:26:36.028Z,16.60
2022-09-25T11:29:58.510Z,14.45
2022-09-25T11:32:40.027Z,15.45
2022-09-25T11:35:39.404Z,15.38
2022-09-25T11:38:45.209Z,15.02
2022-09-25T11:41:35.189Z,15.30
2022-09-25T11:44:19.984Z,14.02
2022-09-25T11:46:50.419Z,13.40
2022-09-25T11:49:17.143Z,14.85
2022-09-25T11:52:16.491Z,12.52
2022-09-25T11:55:18.497Z,12.13
2022-09-25T11:57:57.084Z,15.23
2022-09-25T12:00:34.216Z,12.50
2022-09-25T12:03:43.044Z,13.95
2022-09-25T12:06:19.966Z,14.55
2022-09-25T12:08:53.421Z,13.43
2022-09-25T12:11:51.096Z,15.63
2022-09-25T12:14:36.111Z,13.00
2022-09-25T12:17:50.998Z,14.38
2022-09-25T12:20:32.763Z,14.70
2022-09-25T12:23:31.433Z,15.85
2022-09-25T12:26:12.452Z,15.48
2022-09-25T12:29:10.464Z,15.38
2022-09-25T12:32:14.897Z,15.85
2022-09-25T12:34:44.396Z,13.65
2022-09-25T12:37:28.767Z,15.90
2022-09-25T12:40:11.687Z,14.48
2022-09-25T12:42:59.097Z,13.02
2022-09-25T12:45:33.320Z,10.35
2022-09-25T12:48:23.588Z,10.15
2022-09-25T12:51:01.485Z,10.57
2022-09-25T12:53:39.600Z,11.60
2022-09-25T12:56:32.112Z,11.25
2022-09-25T12:58:59.220Z,11.57
2022-09-25T13:01:37.803Z,12.35
2022-09-25T13:04:23.549Z,12.68
2022-09-25T13:07:08.118Z,11.45
2022-09-25T13:09:45.477Z,10.77
2022-09-25T13:12:26.160Z,9.27
2022-09-25T13:14:57.641Z,9.82
2022-09-25T13:17:24.366Z,10.38
2022-09-25T13:19:51.518Z,9.60
2022-09-25T13:22:20.767Z,11.68
2022-09-25T13:25:02.965Z,12.57
2022-09-25T13:27:39.011Z,11.38
2022-09-25T13:30:07.073Z,11.27
2022-09-25T13:32:39.093Z,11.38
2022-09-25T13:35:19.999Z,12.68
2022-09-25T13:37:48.302Z,11.18
2022-09-25T13:40:39.276Z,11.20
2022-09-25T13:43:21.265Z,12.27
2022-09-25T13:45:49.201Z,12.65
2022-09-25T13:48:36.142Z,13.82
2022-09-25T13:51:18.289Z,12.90
2022-09-25T13:56:23.568Z,11.15
2022-09-25T13:59:16.010Z,12.13
2022-09-25T14:01:51.265Z,37.20
2022-09-25T14:04:31.769Z,16.17
2022-09-25T14:07:07.497Z,15.93
2022-09-25T14:09:34.325Z,26.90
2022-09-25T14:14:28.225Z,12.48
2022-09-25T14:17:01.006Z,12.57
2022-09-25T14:19:36.440Z,14.55
2022-09-25T14:22:06.327Z,13.20
2022-09-25T14:24:33.033Z,12.93
2022-09-25T14:27:03.918Z,14.05
2022-09-25T14:29:40.778Z,13.63
2022-09-25T14:32:43.212Z,18.88
2022-09-25T14:35:05.432Z,16.65
2022-09-25T14:38:06.733Z,17.25
2022-09-25T14:40:40.162Z,16.10
2022-09-25T14:43:13.267Z,14.38
2022-09-25T14:45:54.825Z,14.65
2022-09-25T14:48:46.771Z,14.57
2022-09-25T14:51:24.655Z,17.52
2022-09-25T14:54:00.800Z,17.10
2022-09-25T14:56:34.073Z,18.20
2022-09-25T14:59:11.647Z,17.73
2022-09-25T15:01:47.734Z,19.80
2022-09-25T15:04:29.652Z,18.58
2022-09-25T15:07:08.574Z,26.60
2022-09-25T15:09:38.624Z,26.25
2022-09-25T15:12:31.588Z,26.08
2022-09-25T15:15:03.971Z,28.48
2022-09-25T15:17:32.766Z,27.73
2022-09-25T15:20:03.083Z,29.52
2022-09-25T15:22:38.593Z,32.90
2022-09-25T15:25:08.263Z,36.03
2022-09-25T15:27:42.462Z,43.28
2022-09-25T15:30:15.790Z,38.15
2022-09-25T15:32:47.413Z,24.70
2022-09-25T15:35:18.349Z,25.02
2022-09-25T15:37:46.735Z,24.35
2022-09-25T15:40:27.902Z,26.83
2022-09-25T15:42:55.306Z,26.90
2022-09-25T15:45:45.227Z,31.40
2022-09-25T15:48:31.204Z,31.73
2022-09-25T15:51:03.749Z,36.65
2022-09-25T15:53:35.932Z,40.35
2022-09-25T15:56:27.469Z,60.15
2022-09-25T15:59:13.822Z,51.57
2022-09-25T16:02:05.319Z,32.65
2022-09-25T16:04:47.155Z,37.80
2022-09-25T16:07:29.304Z,30.15
2022-09-25T16:12:32.537Z,98.25
2022-09-25T16:15:24.453Z,83.17
2022-09-25T16:17:51.093Z,62.05
2022-09-25T16:20:23.242Z,57.72
2022-09-25T16:22:57.025Z,44.40
2022-09-25T16:25:32.075Z,46.92
2022-09-25T16:28:15.947Z,30.15
2022-09-25T16:30:58.857Z,74.45
2022-09-25T16:33:28.776Z,60.35
2022-09-25T16:36:12.876Z,59.42
2022-09-25T16:38:42.743Z,62.13
2022-09-25T16:41:12.046Z,71.78
2022-09-25T16:43:39.669Z,57.95
2022-09-25T16:46:22.092Z,45.90
2022-09-25T16:49:01.862Z,53.67
2022-09-25T16:51:32.905Z,45.78
2022-09-25T16:54:03.624Z,47.65
2022-09-25T16:56:31.914Z,40.35
2022-09-25T16:58:59.251Z,39.65
2022-09-25T17:03:52.497Z,31.10
2022-09-25T17:06:20.555Z,32.05
2022-09-25T17:08:49.213Z,32.00
2022-09-25T17:11:18.119Z,34.35
2022-09-25T17:13:45.736Z,33.28
2022-09-25T17:16:12.499Z,39.60
2022-09-25T17:18:39.537Z,39.22
2022-09-25T17:21:13.454Z,43.92
2022-09-25T17:23:40.044Z,141.90
2022-09-25T17:26:18.452Z,125.63
2022-09-25T17:28:45.132Z,86.50
2022-09-25T17:31:14.808Z,77.22
2022-09-25T17:33:41.544Z,56.03
2022-09-25T17:36:11.351Z,42.13
2022-09-25T17:38:38.191Z,33.95
2022-09-25T17:41:32.633Z,32.75
2022-09-25T17:43:59.734Z,31.48
2022-09-25T17:48:40.894Z,43.53
2022-09-25T17:53:22.009Z,39.95
2022-09-25T17:55:53.374Z,42.92
2022-09-25T17:58:22.254Z,43.03
2022-09-25T18:00:51.285Z,44.08
2022-09-25T18:03:18.780Z,47.40
2022-09-25T18:05:45.446Z,50.22
2022-09-25T18:08:12.447Z,49.22
2022-09-25T18:10:39.309Z,52.53
2022-09-25T18:13:07.762Z,53.80
2022-09-25T18:15:36.838Z,45.30
2022-09-25T18:18:04.001Z,50.00
2022-09-25T18:20:48.897Z,52.95
2022-09-25T18:23:15.565Z,128.25
2022-09-25T18:25:42.077Z,186.50
2022-09-25T18:28:09.149Z,112.80
2022-09-25T18:30:38.028Z,94.70
2022-09-25T18:33:04.995Z,71.68
2022-09-25T18:35:31.613Z,50.50
2022-09-25T18:37:59.719Z,44.08
2022-09-25T18:42:47.052Z,39.88
2022-09-25T18:45:14.477Z,37.80
2022-09-25T18:47:42.820Z,41.67
2022-09-25T18:50:10.610Z,41.20
2022-09-25T18:52:40.248Z,49.00
2022-09-25T18:55:07.319Z,46.33
2022-09-25T18:57:37.400Z,58.92
2022-09-25T19:00:07.364Z,301.17
2022-09-25T19:02:39.054Z,111.47
2022-09-25T19:05:06.836Z,68.80
2022-09-25T19:07:33.575Z,62.40
2022-09-25T19:10:07.677Z,59.58
2022-09-25T19:12:34.347Z,61.53
2022-09-25T19:15:01.585Z,59.50
2022-09-25T19:17:28.145Z,55.88
2022-09-25T19:19:54.634Z,60.95
2022-09-25T19:22:23.819Z,57.17
2022-09-25T19:24:52.627Z,62.22
2022-09-25T19:27:21.950Z,57.30
2022-09-25T19:29:48.491Z,64.90
2022-09-25T19:32:17.072Z,60.50
2022-09-25T19:34:43.878Z,65.47
2022-09-25T19:37:10.967Z,74.82
2022-09-25T19:39:57.424Z,79.78
2022-09-25T19:42:26.421Z,84.60
2022-09-25T19:44:54.657Z,82.90
2022-09-25T19:47:23.931Z,79.50
2022-09-25T19:49:50.523Z,81.78
2022-09-25T19:52:17.241Z,81.45
2022-09-25T19:54:43.786Z,72.78
2022-09-25T19:57:10.427Z,76.05
2022-09-25T19:59:36.961Z,76.15
2022-09-25T20:04:35.749Z,73.05
2022-09-25T20:07:02.383Z,71.95
2022-09-25T20:09:28.885Z,69.22
2022-09-25T20:11:57.675Z,73.93
2022-09-25T20:14:27.107Z,73.15
2022-09-25T20:16:54.974Z,72.85
2022-09-25T20:19:21.793Z,77.45
2022-09-25T20:21:48.944Z,73.43
2022-09-25T20:24:15.899Z,70.35
2022-09-25T20:26:42.525Z,73.93
2022-09-25T20:29:14.723Z,77.03
2022-09-25T20:31:44.262Z,69.75
2022-09-25T20:34:17.215Z,74.03
2022-09-25T20:36:44.161Z,84.95
2022-09-25T20:39:11.004Z,91.22
2022-09-25T20:41:38.248Z,83.43
2022-09-25T20:44:05.379Z,80.60
2022-09-25T20:46:33.173Z,76.53
2022-09-25T20:49:00.550Z,68.03
2022-09-25T20:51:29.809Z,64.95
2022-09-25T20:54:07.433Z,64.57
2022-09-25T20:56:36.364Z,64.28
2022-09-25T20:59:04.337Z,61.20
2022-09-25T21:01:34.689Z,54.15
2022-09-25T21:04:03.527Z,54.78
2022-09-25T21:06:32.727Z,60.28
2022-09-25T21:09:01.143Z,59.40
2022-09-25T21:11:30.114Z,63.40
2022-09-25T21:13:59.481Z,59.22
2022-09-25T21:16:28.090Z,57.80
2022-09-25T21:19:04.562Z,54.20
2022-09-25T21:21:33.129Z,57.55
2022-09-25T21:24:02.450Z,60.20
2022-09-25T21:26:30.717Z,59.78
2022-09-25T21:28:59.252Z,57.50
2022-09-25T21:31:34.639Z,55.25
2022-09-25T21:34:01.868Z,61.25
2022-09-25T21:36:29.172Z,60.55
2022-09-25T21:38:56.117Z,62.72
2022-09-25T21:41:25.223Z,52.15
2022-09-25T21:43:59.711Z,53.67
2022-09-25T21:46:27.342Z,57.47
2022-09-25T21:48:59.263Z,57.22
2022-09-25T21:51:31.964Z,57.83
2022-09-25T21:54:00.908Z,61.05
2022-09-25T21:56:30.679Z,60.63
2022-09-25T22:01:27.820Z,67.90
2022-09-25T22:03:56.800Z,96.57
2022-09-25T22:06:29.081Z,82.35
2022-09-25T22:08:58.554Z,69.53
2022-09-25T22:11:26.290Z,61.33
2022-09-25T22:13:53.548Z,81.53
2022-09-25T22:16:29.930Z,219.80
2022-09-25T22:19:27.324Z,189.88
2022-09-25T22:21:58.837Z,134.00
2022-09-25T22:24:26.392Z,111.57
2022-09-25T22:26:55.398Z,53.58
2022-09-25T22:29:22.948Z,49.75
2022-09-25T22:31:50.458Z,49.42
2022-09-25T22:34:20.995Z,52.38
2022-09-25T22:36:48.701Z,54.28
2022-09-25T22:39:18.100Z,57.15
2022-09-25T22:41:45.795Z,56.85
2022-09-25T22:44:12.403Z,69.13
2022-09-25T22:46:39.301Z,66.93
2022-09-25T22:49:06.252Z,77.95
2022-09-25T22:51:32.965Z,88.75
2022-09-25T22:53:59.469Z,125.75
2022-09-25T22:56:36.849Z,130.73
2022-09-25T23:01:26.194Z,81.35
2022-09-25T23:03:58.381Z,54.88
2022-09-25T23:06:25.476Z,65.40
2022-09-25T23:08:57.792Z,72.82
2022-09-25T23:11:25.497Z,72.30
2022-09-25T23:14:06.853Z,66.25
2022-09-25T23:16:34.701Z,65.27
2022-09-25T23:19:02.098Z,81.78
2022-09-25T23:21:30.316Z,72.50
2022-09-25T23:24:02.486Z,69.55
2022-09-25T23:26:29.793Z,69.65
2022-09-25T23:28:58.590Z,64.63
2022-09-25T23:31:25.898Z,160.23
2022-09-25T23:33:52.685Z,152.65
2022-09-25T23:36:21.606Z,135.88
2022-09-25T23:38:49.780Z,95.38
2022-09-25T23:41:17.468Z,83.68
2022-09-25T23:43:45.228Z,72.88
2022-09-25T23:46:13.099Z,63.03
2022-09-25T23:48:39.776Z,64.28
2022-09-25T23:51:06.861Z,101.85
2022-09-25T23:53:34.059Z,221.15
2022-09-25T23:56:15.852Z,149.77
2022-09-25T23:58:43.544Z,119.90
